createdAt,value
2023-05-05T00:00:10.226Z,460.00
2023-05-05T00:00:40.336Z,462.00
2023-05-05T00:01:10.444Z,461.00
2023-05-05T00:01:40.565Z,461.00
2023-05-05T00:02:10.731Z,460.00
2023-05-05T00:02:40.771Z,459.00
2023-05-05T00:03:10.848Z,457.00
2023-05-05T00:03:40.964Z,456.00
2023-05-05T00:04:11.036Z,455.00
2023-05-05T00:04:41.018Z,458.00
2023-05-05T00:05:11.121Z,460.00
2023-05-05T00:05:41.197Z,461.00
2023-05-05T00:06:11.277Z,459.00
2023-05-05T00:06:41.340Z,460.00
2023-05-05T00:07:11.412Z,459.00
2023-05-05T00:07:41.516Z,460.00
2023-05-05T00:08:11.579Z,458.00
2023-05-05T00:08:41.664Z,456.00
2023-05-05T00:09:11.746Z,454.00
2023-05-05T00:09:41.834Z,452.00
2023-05-05T00:10:11.911Z,453.00
2023-05-05T00:10:41.915Z,454.00
2023-05-05T00:11:12.020Z,456.00
2023-05-05T00:11:42.105Z,455.00
2023-05-05T00:12:12.160Z,453.00
2023-05-05T00:12:42.273Z,452.00
2023-05-05T00:13:12.327Z,450.00
2023-05-05T00:13:42.332Z,452.00
2023-05-05T00:14:12.408Z,452.00
2023-05-05T00:14:42.491Z,451.00
2023-05-05T00:15:12.573Z,451.00
2023-05-05T00:15:42.681Z,453.00
2023-05-05T00:16:12.790Z,453.00
2023-05-05T00:16:42.904Z,456.00
2023-05-05T00:17:13.193Z,456.00
2023-05-05T00:17:43.175Z,456.00
2023-05-05T00:18:13.145Z,457.00
2023-05-05T00:18:43.261Z,458.00
2023-05-05T00:19:13.256Z,458.00
2023-05-05T00:19:43.360Z,458.00
2023-05-05T00:20:13.472Z,459.00
2023-05-05T00:20:43.627Z,459.00
2023-05-05T00:21:13.592Z,460.00
2023-05-05T00:21:43.698Z,460.00
2023-05-05T00:22:13.804Z,460.00
2023-05-05T00:22:43.922Z,459.00
2023-05-05T00:23:14.024Z,458.00
2023-05-05T00:23:44.133Z,458.00
2023-05-05T00:24:14.130Z,458.00
2023-05-05T00:24:44.237Z,457.00
2023-05-05T00:25:14.344Z,457.00
2023-05-05T00:25:44.498Z,457.00
2023-05-05T00:26:14.473Z,459.00
2023-05-05T00:26:44.608Z,459.00
2023-05-05T00:27:14.717Z,459.00
2023-05-05T00:27:44.815Z,458.00
2023-05-05T00:28:14.951Z,456.00
2023-05-05T00:28:44.939Z,454.00
2023-05-05T00:29:15.054Z,454.00
2023-05-05T00:29:45.176Z,454.00
2023-05-05T00:30:15.327Z,454.00
2023-05-05T00:30:45.326Z,455.00
2023-05-05T00:31:15.458Z,454.00
2023-05-05T00:31:45.455Z,455.00
2023-05-05T00:32:15.570Z,455.00
2023-05-05T00:32:45.742Z,455.00
2023-05-05T00:33:15.703Z,457.00
2023-05-05T00:33:45.748Z,458.00
2023-05-05T00:34:15.870Z,459.00
2023-05-05T00:34:45.982Z,458.00
2023-05-05T00:35:16.095Z,456.00
2023-05-05T00:35:46.095Z,458.00
2023-05-05T00:36:16.205Z,457.00
2023-05-05T00:36:46.314Z,456.00
2023-05-05T00:37:16.428Z,456.00
2023-05-05T00:37:46.548Z,456.00
2023-05-05T00:38:16.660Z,457.00
2023-05-05T00:38:46.769Z,455.00
2023-05-05T00:39:16.888Z,455.00
2023-05-05T00:39:46.990Z,457.00
2023-05-05T00:40:17.103Z,458.00
2023-05-05T00:40:47.218Z,458.00
2023-05-05T00:41:17.331Z,459.00
2023-05-05T00:41:47.459Z,461.00
2023-05-05T00:42:17.571Z,462.00
2023-05-05T00:42:47.673Z,461.00
2023-05-05T00:43:17.762Z,461.00
2023-05-05T00:43:47.876Z,461.00
2023-05-05T00:44:17.996Z,460.00
2023-05-05T00:44:48.103Z,460.00
2023-05-05T00:45:18.210Z,461.00
2023-05-05T00:45:48.317Z,462.00
2023-05-05T00:46:18.447Z,462.00
2023-05-05T00:46:48.493Z,462.00
2023-05-05T00:47:18.584Z,461.00
2023-05-05T00:47:48.735Z,458.00
2023-05-05T00:48:18.768Z,457.00
2023-05-05T00:48:48.923Z,455.00
2023-05-05T00:49:18.936Z,455.00
2023-05-05T00:49:48.925Z,454.00
2023-05-05T00:50:19.041Z,455.00
2023-05-05T00:50:49.193Z,456.00
2023-05-05T00:51:19.179Z,456.00
2023-05-05T00:51:49.290Z,456.00
2023-05-05T00:52:19.405Z,455.00
2023-05-05T00:52:49.512Z,453.00
2023-05-05T00:53:19.629Z,455.00
2023-05-05T00:53:49.737Z,453.00
2023-05-05T00:54:19.847Z,453.00
2023-05-05T00:54:49.958Z,454.00
2023-05-05T00:55:20.074Z,454.00
2023-05-05T00:55:50.177Z,454.00
2023-05-05T00:56:20.287Z,452.00
2023-05-05T00:56:50.417Z,452.00
2023-05-05T00:57:20.507Z,454.00
2023-05-05T00:57:50.622Z,452.00
2023-05-05T00:58:20.736Z,454.00
2023-05-05T00:58:50.847Z,454.00
2023-05-05T00:59:20.892Z,454.00
2023-05-05T00:59:50.999Z,455.00
2023-05-05T01:00:21.111Z,456.00
2023-05-05T01:00:51.221Z,456.00
2023-05-05T01:01:21.360Z,456.00
2023-05-05T01:01:51.371Z,454.00
2023-05-05T01:02:21.371Z,455.00
2023-05-05T01:02:51.568Z,456.00
2023-05-05T01:03:21.631Z,456.00
2023-05-05T01:03:51.733Z,457.00
2023-05-05T01:04:21.651Z,455.00
2023-05-05T01:04:51.749Z,454.00
2023-05-05T01:05:21.837Z,455.00
2023-05-05T01:05:51.913Z,453.00
2023-05-05T01:06:21.985Z,452.00
2023-05-05T01:06:52.059Z,452.00
2023-05-05T01:07:22.136Z,453.00
2023-05-05T01:07:52.226Z,453.00
2023-05-05T01:08:22.301Z,453.00
2023-05-05T01:08:52.372Z,453.00
2023-05-05T01:09:22.445Z,453.00
2023-05-05T01:10:01.030Z,452.00
2023-05-05T01:10:22.992Z,454.00
2023-05-05T01:10:52.660Z,454.00
2023-05-05T01:11:22.739Z,454.00
2023-05-05T01:11:52.830Z,452.00
2023-05-05T01:12:22.880Z,452.00
2023-05-05T01:12:52.979Z,453.00
2023-05-05T01:13:23.056Z,452.00
2023-05-05T01:13:53.134Z,452.00
2023-05-05T01:14:23.214Z,453.00
2023-05-05T01:14:53.273Z,452.00
2023-05-05T01:15:23.391Z,449.00
2023-05-05T01:15:53.484Z,450.00
2023-05-05T01:16:23.450Z,449.00
2023-05-05T01:16:53.424Z,449.00
2023-05-05T01:17:23.559Z,449.00
2023-05-05T01:17:53.579Z,451.00
2023-05-05T01:18:23.556Z,450.00
2023-05-05T01:18:53.667Z,452.00
2023-05-05T01:19:23.811Z,451.00
2023-05-05T01:19:53.886Z,451.00
2023-05-05T01:20:24.024Z,450.00
2023-05-05T01:20:54.010Z,448.00
2023-05-05T01:21:24.126Z,449.00
2023-05-05T01:21:54.242Z,450.00
2023-05-05T01:22:24.377Z,450.00
2023-05-05T01:22:54.351Z,449.00
2023-05-05T01:23:24.466Z,450.00
2023-05-05T01:23:54.581Z,451.00
2023-05-05T01:24:24.695Z,450.00
2023-05-05T01:24:54.803Z,448.00
2023-05-05T01:25:24.953Z,447.00
2023-05-05T01:25:54.952Z,445.00
2023-05-05T01:26:25.055Z,444.00
2023-05-05T01:26:55.193Z,446.00
2023-05-05T01:27:25.286Z,445.00
2023-05-05T01:27:55.390Z,444.00
2023-05-05T01:28:25.508Z,442.00
2023-05-05T01:28:55.628Z,446.00
2023-05-05T01:29:25.748Z,448.00
2023-05-05T01:29:55.847Z,450.00
2023-05-05T01:30:25.979Z,451.00
2023-05-05T01:30:55.971Z,452.00
2023-05-05T01:31:56.216Z,453.00
2023-05-05T01:32:26.175Z,454.00
2023-05-05T01:32:56.287Z,456.00
2023-05-05T01:33:26.252Z,455.00
2023-05-05T01:33:56.370Z,455.00
2023-05-05T01:34:26.486Z,452.00
2023-05-05T01:34:56.599Z,453.00
2023-05-05T01:35:26.729Z,455.00
2023-05-05T01:35:56.732Z,456.00
2023-05-05T01:36:26.841Z,457.00
2023-05-05T01:36:56.978Z,456.00
2023-05-05T01:37:27.079Z,455.00
2023-05-05T01:37:57.184Z,455.00
2023-05-05T01:38:27.301Z,455.00
2023-05-05T01:38:57.409Z,455.00
2023-05-05T01:39:27.516Z,454.00
2023-05-05T01:39:57.622Z,454.00
2023-05-05T01:40:27.804Z,454.00
2023-05-05T01:40:57.773Z,453.00
2023-05-05T01:41:27.896Z,453.00
2023-05-05T01:41:57.904Z,454.00
2023-05-05T01:42:27.998Z,452.00
2023-05-05T01:42:58.110Z,452.00
2023-05-05T01:43:28.217Z,453.00
2023-05-05T01:43:58.328Z,453.00
2023-05-05T01:44:28.439Z,451.00
2023-05-05T01:44:58.555Z,452.00
2023-05-05T01:45:28.715Z,453.00
2023-05-05T01:45:58.801Z,453.00
2023-05-05T01:46:28.805Z,452.00
2023-05-05T01:46:58.923Z,452.00
2023-05-05T01:47:29.042Z,453.00
2023-05-05T01:47:59.214Z,452.00
2023-05-05T01:48:29.187Z,452.00
2023-05-05T01:48:59.295Z,452.00
2023-05-05T01:49:29.411Z,454.00
2023-05-05T01:49:59.527Z,452.00
2023-05-05T01:50:29.681Z,454.00
2023-05-05T01:50:59.656Z,452.00
2023-05-05T01:51:29.767Z,453.00
2023-05-05T01:51:59.880Z,453.00
2023-05-05T01:52:29.988Z,452.00
2023-05-05T01:53:00.129Z,453.00
2023-05-05T01:53:30.106Z,453.00
2023-05-05T01:54:00.213Z,454.00
2023-05-05T01:54:30.319Z,455.00
2023-05-05T01:55:00.439Z,457.00
2023-05-05T01:55:30.566Z,457.00
2023-05-05T01:56:00.552Z,458.00
2023-05-05T01:56:30.684Z,458.00
2023-05-05T01:57:00.681Z,459.00
2023-05-05T01:57:30.767Z,458.00
2023-05-05T01:58:00.882Z,456.00
2023-05-05T01:58:30.989Z,457.00
2023-05-05T01:59:01.116Z,458.00
2023-05-05T01:59:31.209Z,459.00
2023-05-05T02:00:01.363Z,460.00
2023-05-05T02:00:31.405Z,460.00
2023-05-05T02:01:01.391Z,461.00
2023-05-05T02:02:01.502Z,459.00
2023-05-05T02:02:31.641Z,459.00
2023-05-05T02:03:01.593Z,459.00
2023-05-05T02:03:31.641Z,459.00
2023-05-05T02:04:01.602Z,461.00
2023-05-05T02:04:31.709Z,462.00
2023-05-05T02:05:01.822Z,462.00
2023-05-05T02:05:31.954Z,462.00
2023-05-05T02:06:02.032Z,463.00
2023-05-05T02:06:32.099Z,462.00
2023-05-05T02:07:02.165Z,464.00
2023-05-05T02:07:32.245Z,464.00
2023-05-05T02:08:02.311Z,463.00
2023-05-05T02:08:32.387Z,463.00
2023-05-05T02:09:02.471Z,463.00
2023-05-05T02:09:32.546Z,463.00
2023-05-05T02:10:02.619Z,464.00
2023-05-05T02:10:32.712Z,465.00
2023-05-05T02:11:02.774Z,464.00
2023-05-05T02:11:32.863Z,465.00
2023-05-05T02:12:02.950Z,465.00
2023-05-05T02:12:33.031Z,464.00
2023-05-05T02:13:03.157Z,466.00
2023-05-05T02:13:33.278Z,464.00
2023-05-05T02:14:03.364Z,464.00
2023-05-05T02:14:33.447Z,463.00
2023-05-05T02:15:03.515Z,462.00
2023-05-05T02:15:33.665Z,461.00
2023-05-05T02:16:03.708Z,459.00
2023-05-05T02:16:33.693Z,457.00
2023-05-05T02:17:03.809Z,456.00
2023-05-05T02:17:33.924Z,456.00
2023-05-05T02:18:04.060Z,456.00
2023-05-05T02:18:34.142Z,456.00
2023-05-05T02:19:04.261Z,457.00
2023-05-05T02:19:34.251Z,458.00
2023-05-05T02:20:04.364Z,458.00
2023-05-05T02:20:34.500Z,460.00
2023-05-05T02:21:04.490Z,458.00
2023-05-05T02:21:34.605Z,456.00
2023-05-05T02:22:04.722Z,456.00
2023-05-05T02:22:34.821Z,458.00
2023-05-05T02:23:04.937Z,455.00
2023-05-05T02:23:35.049Z,456.00
2023-05-05T02:24:05.168Z,457.00
2023-05-05T02:24:35.282Z,458.00
2023-05-05T02:25:05.388Z,458.00
2023-05-05T02:25:35.517Z,459.00
2023-05-05T02:26:05.505Z,460.00
2023-05-05T02:26:35.622Z,457.00
2023-05-05T02:27:05.754Z,456.00
2023-05-05T02:27:35.839Z,458.00
2023-05-05T02:28:05.954Z,458.00
2023-05-05T02:28:36.065Z,456.00
2023-05-05T02:29:06.171Z,456.00
2023-05-05T02:29:36.293Z,455.00
2023-05-05T02:30:06.783Z,454.00
2023-05-05T02:30:36.503Z,453.00
2023-05-05T02:31:06.518Z,453.00
2023-05-05T02:31:36.573Z,454.00
2023-05-05T02:32:06.556Z,455.00
2023-05-05T02:32:36.750Z,458.00
2023-05-05T02:33:06.787Z,457.00
2023-05-05T02:33:36.814Z,457.00
2023-05-05T02:34:06.919Z,457.00
2023-05-05T02:34:37.036Z,456.00
2023-05-05T02:35:07.150Z,455.00
2023-05-05T02:35:37.290Z,455.00
2023-05-05T02:36:07.264Z,455.00
2023-05-05T02:36:37.433Z,455.00
2023-05-05T02:37:07.425Z,453.00
2023-05-05T02:37:37.543Z,454.00
2023-05-05T02:38:07.647Z,453.00
2023-05-05T02:38:37.758Z,454.00
2023-05-05T02:39:07.867Z,454.00
2023-05-05T02:39:37.984Z,453.00
2023-05-05T02:40:08.345Z,453.00
2023-05-05T02:40:38.131Z,454.00
2023-05-05T02:41:08.122Z,455.00
2023-05-05T02:41:38.252Z,456.00
2023-05-05T02:42:08.375Z,456.00
2023-05-05T02:42:38.534Z,454.00
2023-05-05T02:43:08.548Z,454.00
2023-05-05T02:43:38.543Z,454.00
2023-05-05T02:44:08.654Z,454.00
2023-05-05T02:44:38.742Z,454.00
2023-05-05T02:45:08.850Z,453.00
2023-05-05T02:45:38.994Z,452.00
2023-05-05T02:46:08.985Z,453.00
2023-05-05T02:46:39.117Z,452.00
2023-05-05T02:47:09.112Z,452.00
2023-05-05T02:47:39.278Z,450.00
2023-05-05T02:48:09.329Z,450.00
2023-05-05T02:48:39.299Z,454.00
2023-05-05T02:49:09.409Z,454.00
2023-05-05T02:49:39.519Z,453.00
2023-05-05T02:50:09.947Z,452.00
2023-05-05T02:50:39.733Z,453.00
2023-05-05T02:51:09.711Z,452.00
2023-05-05T02:51:39.831Z,453.00
2023-05-05T02:52:09.933Z,452.00
2023-05-05T02:52:40.054Z,452.00
2023-05-05T02:53:10.171Z,452.00
2023-05-05T02:53:40.267Z,452.00
2023-05-05T02:54:10.376Z,451.00
2023-05-05T02:54:40.487Z,452.00
2023-05-05T02:55:10.603Z,454.00
2023-05-05T02:55:40.735Z,454.00
2023-05-05T02:56:10.723Z,456.00
2023-05-05T02:56:40.840Z,455.00
2023-05-05T02:57:10.904Z,456.00
2023-05-05T02:57:40.871Z,455.00
2023-05-05T02:58:10.988Z,457.00
2023-05-05T02:58:41.095Z,457.00
2023-05-05T02:59:11.210Z,455.00
2023-05-05T02:59:41.227Z,458.00
2023-05-05T03:00:11.325Z,457.00
2023-05-05T03:00:41.465Z,456.00
2023-05-05T03:01:11.512Z,454.00
2023-05-05T03:01:41.609Z,455.00
2023-05-05T03:02:11.594Z,454.00
2023-05-05T03:02:41.787Z,454.00
2023-05-05T03:03:11.797Z,453.00
2023-05-05T03:03:41.997Z,452.00
2023-05-05T03:04:11.903Z,452.00
2023-05-05T03:04:42.016Z,453.00
2023-05-05T03:05:12.115Z,454.00
2023-05-05T03:05:42.220Z,453.00
2023-05-05T03:06:12.302Z,453.00
2023-05-05T03:06:42.374Z,450.00
2023-05-05T03:07:12.446Z,448.00
2023-05-05T03:07:42.514Z,450.00
2023-05-05T03:08:12.585Z,450.00
2023-05-05T03:08:42.665Z,450.00
2023-05-05T03:09:12.725Z,449.00
2023-05-05T03:09:42.808Z,452.00
2023-05-05T03:10:12.878Z,452.00
2023-05-05T03:10:42.965Z,453.00
2023-05-05T03:11:13.034Z,453.00
2023-05-05T03:11:43.104Z,452.00
2023-05-05T03:12:13.210Z,450.00
2023-05-05T03:12:43.271Z,449.00
2023-05-05T03:13:13.557Z,448.00
2023-05-05T03:13:43.421Z,450.00
2023-05-05T03:14:13.497Z,453.00
2023-05-05T03:14:43.578Z,452.00
2023-05-05T03:15:13.662Z,451.00
2023-05-05T03:15:43.780Z,449.00
2023-05-05T03:16:13.838Z,449.00
2023-05-05T03:16:43.896Z,450.00
2023-05-05T03:17:13.962Z,449.00
2023-05-05T03:17:44.110Z,449.00
2023-05-05T03:18:14.176Z,447.00
2023-05-05T03:18:44.164Z,445.00
2023-05-05T03:19:14.267Z,445.00
2023-05-05T03:19:44.387Z,446.00
2023-05-05T03:20:14.494Z,450.00
2023-05-05T03:20:44.533Z,448.00
2023-05-05T03:21:14.523Z,447.00
2023-05-05T03:21:44.632Z,445.00
2023-05-05T03:22:14.744Z,444.00
2023-05-05T03:22:44.857Z,445.00
2023-05-05T03:23:14.968Z,446.00
2023-05-05T03:23:45.082Z,444.00
2023-05-05T03:24:15.192Z,443.00
2023-05-05T03:24:45.301Z,445.00
2023-05-05T03:25:15.413Z,446.00
2023-05-05T03:25:45.550Z,444.00
2023-05-05T03:26:15.554Z,444.00
2023-05-05T03:26:45.677Z,446.00
2023-05-05T03:27:15.815Z,448.00
2023-05-05T03:27:45.772Z,446.00
2023-05-05T03:28:15.892Z,446.00
2023-05-05T03:28:46.007Z,447.00
2023-05-05T03:29:16.011Z,447.00
2023-05-05T03:29:46.009Z,445.00
2023-05-05T03:30:16.125Z,444.00
2023-05-05T03:30:46.235Z,441.00
2023-05-05T03:31:16.234Z,440.00
2023-05-05T03:31:46.362Z,441.00
2023-05-05T03:32:16.395Z,441.00
2023-05-05T03:32:46.455Z,440.00
2023-05-05T03:33:16.444Z,443.00
2023-05-05T03:33:46.583Z,443.00
2023-05-05T03:34:16.565Z,445.00
2023-05-05T03:34:46.674Z,446.00
2023-05-05T03:35:16.784Z,447.00
2023-05-05T03:35:46.911Z,447.00
2023-05-05T03:36:17.034Z,447.00
2023-05-05T03:36:47.127Z,447.00
2023-05-05T03:37:17.237Z,446.00
2023-05-05T03:37:47.347Z,447.00
2023-05-05T03:38:17.464Z,449.00
2023-05-05T03:38:47.571Z,450.00
2023-05-05T03:39:17.677Z,450.00
2023-05-05T03:39:47.791Z,449.00
2023-05-05T03:40:17.906Z,448.00
2023-05-05T03:40:48.023Z,449.00
2023-05-05T03:41:18.134Z,449.00
2023-05-05T03:41:48.248Z,449.00
2023-05-05T03:42:18.565Z,448.00
2023-05-05T03:42:48.405Z,447.00
2023-05-05T03:43:18.509Z,446.00
2023-05-05T03:43:48.619Z,447.00
2023-05-05T03:44:18.804Z,448.00
2023-05-05T03:44:48.770Z,448.00
2023-05-05T03:45:18.874Z,448.00
2023-05-05T03:45:48.999Z,448.00
2023-05-05T03:46:19.274Z,449.00
2023-05-05T03:46:49.152Z,450.00
2023-05-05T03:47:19.257Z,451.00
2023-05-05T03:47:49.397Z,451.00
2023-05-05T03:48:19.500Z,455.00
2023-05-05T03:48:49.598Z,451.00
2023-05-05T03:49:19.707Z,451.00
2023-05-05T03:49:49.838Z,451.00
2023-05-05T03:50:19.954Z,450.00
2023-05-05T03:50:50.096Z,453.00
2023-05-05T03:51:20.082Z,456.00
2023-05-05T03:51:50.185Z,460.00
2023-05-05T03:52:20.295Z,471.00
2023-05-05T03:52:50.406Z,474.00
2023-05-05T03:53:20.518Z,478.00
2023-05-05T03:53:50.657Z,480.00
2023-05-05T03:54:20.635Z,482.00
2023-05-05T03:54:50.753Z,483.00
2023-05-05T03:55:20.851Z,481.00
2023-05-05T03:55:50.983Z,478.00
2023-05-05T03:56:21.082Z,480.00
2023-05-05T03:56:51.190Z,478.00
2023-05-05T03:57:21.323Z,476.00
2023-05-05T03:57:51.411Z,476.00
2023-05-05T03:58:21.516Z,475.00
2023-05-05T03:58:51.627Z,478.00
2023-05-05T03:59:21.736Z,478.00
2023-05-05T03:59:51.858Z,479.00
2023-05-05T04:00:21.995Z,477.00
2023-05-05T04:00:51.967Z,477.00
2023-05-05T04:01:52.037Z,475.00
2023-05-05T04:02:22.217Z,476.00
2023-05-05T04:02:52.335Z,477.00
2023-05-05T04:03:22.700Z,477.00
2023-05-05T04:03:52.588Z,477.00
2023-05-05T04:04:22.604Z,475.00
2023-05-05T04:04:52.560Z,474.00
2023-05-05T04:05:22.650Z,474.00
2023-05-05T04:05:52.992Z,475.00
2023-05-05T04:06:22.823Z,476.00
2023-05-05T04:07:22.930Z,472.00
2023-05-05T04:07:53.008Z,470.00
2023-05-05T04:08:23.070Z,472.00
2023-05-05T04:08:53.150Z,471.00
2023-05-05T04:09:23.219Z,472.00
2023-05-05T04:09:53.288Z,474.00
2023-05-05T04:10:23.368Z,474.00
2023-05-05T04:10:53.456Z,472.00
2023-05-05T04:11:23.534Z,473.00
2023-05-05T04:11:53.603Z,473.00
2023-05-05T04:12:23.742Z,475.00
2023-05-05T04:12:53.851Z,475.00
2023-05-05T04:13:23.844Z,473.00
2023-05-05T04:13:53.935Z,474.00
2023-05-05T04:14:24.017Z,474.00
2023-05-05T04:14:54.092Z,473.00
2023-05-05T04:15:24.195Z,473.00
2023-05-05T04:15:54.330Z,473.00
2023-05-05T04:16:24.423Z,474.00
2023-05-05T04:16:54.339Z,474.00
2023-05-05T04:17:24.451Z,472.00
2023-05-05T04:17:54.586Z,473.00
2023-05-05T04:18:24.567Z,476.00
2023-05-05T04:19:24.631Z,474.00
2023-05-05T04:19:54.742Z,475.00
2023-05-05T04:20:24.865Z,479.00
2023-05-05T04:20:54.977Z,483.00
2023-05-05T04:21:24.970Z,487.00
2023-05-05T04:21:55.085Z,494.00
2023-05-05T04:22:25.194Z,504.00
2023-05-05T04:22:55.331Z,508.00
2023-05-05T04:23:25.438Z,514.00
2023-05-05T04:23:55.420Z,517.00
2023-05-05T04:24:25.534Z,515.00
2023-05-05T04:24:55.639Z,516.00
2023-05-05T04:25:25.777Z,516.00
2023-05-05T04:25:55.885Z,516.00
2023-05-05T04:26:25.885Z,519.00
2023-05-05T04:26:55.994Z,518.00
2023-05-05T04:27:26.144Z,518.00
2023-05-05T04:27:56.131Z,502.00
2023-05-05T04:28:26.249Z,511.00
2023-05-05T04:28:56.358Z,514.00
2023-05-05T04:29:26.476Z,510.00
2023-05-05T04:29:56.582Z,513.00
2023-05-05T04:30:26.695Z,515.00
2023-05-05T04:30:56.843Z,515.00
2023-05-05T04:31:26.862Z,517.00
2023-05-05T04:31:56.923Z,520.00
2023-05-05T04:32:26.905Z,521.00
2023-05-05T04:32:56.981Z,520.00
2023-05-05T04:33:26.980Z,517.00
2023-05-05T04:33:57.082Z,517.00
2023-05-05T04:34:27.199Z,519.00
2023-05-05T04:34:57.307Z,520.00
2023-05-05T04:35:27.420Z,520.00
2023-05-05T04:35:57.541Z,519.00
2023-05-05T04:36:27.657Z,521.00
2023-05-05T04:36:57.769Z,521.00
2023-05-05T04:37:27.887Z,519.00
2023-05-05T04:37:57.994Z,520.00
2023-05-05T04:38:28.124Z,519.00
2023-05-05T04:38:58.142Z,517.00
2023-05-05T04:39:28.116Z,516.00
2023-05-05T04:39:58.221Z,516.00
2023-05-05T04:40:28.349Z,519.00
2023-05-05T04:40:58.337Z,520.00
2023-05-05T04:41:30.028Z,522.00
2023-05-05T04:41:58.537Z,521.00
2023-05-05T04:42:28.621Z,521.00
2023-05-05T04:42:58.748Z,535.00
2023-05-05T04:43:28.867Z,534.00
2023-05-05T04:43:58.965Z,537.00
2023-05-05T04:44:29.065Z,541.00
2023-05-05T04:44:59.182Z,545.00
2023-05-05T04:45:29.300Z,546.00
2023-05-05T04:45:59.420Z,549.00
2023-05-05T04:46:29.473Z,550.00
2023-05-05T04:46:59.453Z,546.00
2023-05-05T04:47:29.605Z,541.00
2023-05-05T04:47:59.614Z,531.00
2023-05-05T04:48:29.604Z,510.00
2023-05-05T04:48:59.707Z,497.00
2023-05-05T04:49:29.817Z,495.00
2023-05-05T04:49:59.928Z,495.00
2023-05-05T04:50:30.044Z,486.00
2023-05-05T04:51:00.173Z,477.00
2023-05-05T04:51:30.275Z,463.00
2023-05-05T04:52:00.394Z,459.00
2023-05-05T04:52:30.505Z,458.00
2023-05-05T04:53:00.614Z,464.00
2023-05-05T04:53:30.730Z,483.00
2023-05-05T04:54:00.842Z,488.00
2023-05-05T04:54:30.956Z,489.00
2023-05-05T04:55:01.080Z,492.00
2023-05-05T04:55:31.188Z,494.00
2023-05-05T04:56:01.324Z,499.00
2023-05-05T04:56:31.320Z,503.00
2023-05-05T04:57:01.432Z,505.00
2023-05-05T04:57:31.540Z,508.00
2023-05-05T04:58:01.692Z,507.00
2023-05-05T04:58:31.649Z,508.00
2023-05-05T04:59:01.777Z,509.00
2023-05-05T04:59:31.888Z,511.00
2023-05-05T05:00:02.059Z,513.00
2023-05-05T05:00:32.046Z,515.00
2023-05-05T05:01:02.170Z,515.00
2023-05-05T05:01:32.170Z,517.00
2023-05-05T05:02:02.295Z,518.00
2023-05-05T05:02:32.375Z,519.00
2023-05-05T05:03:02.512Z,520.00
2023-05-05T05:03:32.594Z,517.00
2023-05-05T05:04:02.567Z,519.00
2023-05-05T05:04:32.562Z,518.00
2023-05-05T05:05:02.708Z,525.00
2023-05-05T05:05:32.771Z,527.00
2023-05-05T05:06:02.900Z,531.00
2023-05-05T05:06:32.966Z,532.00
2023-05-05T05:07:03.043Z,531.00
2023-05-05T05:07:33.130Z,529.00
2023-05-05T05:08:03.210Z,525.00
2023-05-05T05:08:33.280Z,524.00
2023-05-05T05:09:03.411Z,521.00
2023-05-05T05:09:33.492Z,519.00
2023-05-05T05:10:03.588Z,518.00
2023-05-05T05:10:33.652Z,516.00
2023-05-05T05:11:03.730Z,516.00
2023-05-05T05:11:33.803Z,516.00
2023-05-05T05:12:03.882Z,515.00
2023-05-05T05:12:34.049Z,516.00
2023-05-05T05:13:04.086Z,516.00
2023-05-05T05:13:34.050Z,517.00
2023-05-05T05:14:04.118Z,518.00
2023-05-05T05:14:34.218Z,518.00
2023-05-05T05:15:04.286Z,518.00
2023-05-05T05:15:34.410Z,518.00
2023-05-05T05:16:04.546Z,520.00
2023-05-05T05:16:34.575Z,521.00
2023-05-05T05:17:04.564Z,519.00
2023-05-05T05:17:34.723Z,519.00
2023-05-05T05:18:04.814Z,520.00
2023-05-05T05:18:34.825Z,518.00
2023-05-05T05:19:04.812Z,518.00
2023-05-05T05:19:34.937Z,520.00
2023-05-05T05:20:05.115Z,520.00
2023-05-05T05:20:35.000Z,519.00
2023-05-05T05:21:05.147Z,520.00
2023-05-05T05:21:35.113Z,521.00
2023-05-05T05:22:05.247Z,524.00
2023-05-05T05:22:35.230Z,526.00
2023-05-05T05:23:05.414Z,528.00
2023-05-05T05:23:35.396Z,527.00
2023-05-05T05:24:05.505Z,529.00
2023-05-05T05:24:35.635Z,532.00
2023-05-05T05:25:05.753Z,534.00
2023-05-05T05:25:35.856Z,538.00
2023-05-05T05:26:05.972Z,540.00
2023-05-05T05:26:35.973Z,540.00
2023-05-05T05:27:07.935Z,538.00
2023-05-05T05:27:36.179Z,538.00
2023-05-05T05:28:10.792Z,539.00
2023-05-05T05:28:36.312Z,536.00
2023-05-05T05:29:06.287Z,532.00
2023-05-05T05:29:36.398Z,528.00
2023-05-05T05:30:06.748Z,527.00
2023-05-05T05:30:36.583Z,524.00
2023-05-05T05:31:06.717Z,522.00
2023-05-05T05:31:36.751Z,520.00
2023-05-05T05:32:06.962Z,520.00
2023-05-05T05:32:36.950Z,519.00
2023-05-05T05:33:07.006Z,518.00
2023-05-05T05:33:36.979Z,516.00
2023-05-05T05:34:07.098Z,514.00
2023-05-05T05:34:37.215Z,513.00
2023-05-05T05:35:07.319Z,513.00
2023-05-05T05:35:37.442Z,512.00
2023-05-05T05:36:07.571Z,513.00
2023-05-05T05:36:37.544Z,513.00
2023-05-05T05:37:07.667Z,512.00
2023-05-05T05:37:37.721Z,512.00
2023-05-05T05:38:07.699Z,511.00
2023-05-05T05:38:37.733Z,512.00
2023-05-05T05:39:07.715Z,511.00
2023-05-05T05:39:37.821Z,510.00
2023-05-05T05:40:08.134Z,510.00
2023-05-05T05:40:37.992Z,511.00
2023-05-05T05:41:08.112Z,509.00
2023-05-05T05:41:38.223Z,508.00
2023-05-05T05:42:08.335Z,507.00
2023-05-05T05:42:38.327Z,508.00
2023-05-05T05:43:08.451Z,508.00
2023-05-05T05:43:38.571Z,508.00
2023-05-05T05:44:08.691Z,508.00
2023-05-05T05:44:38.645Z,508.00
2023-05-05T05:45:08.773Z,509.00
2023-05-05T05:45:38.815Z,509.00
2023-05-05T05:46:09.441Z,510.00
2023-05-05T05:46:38.979Z,511.00
2023-05-05T05:47:09.005Z,512.00
2023-05-05T05:47:39.163Z,515.00
2023-05-05T05:48:09.209Z,517.00
2023-05-05T05:48:39.239Z,517.00
2023-05-05T05:49:09.213Z,518.00
2023-05-05T05:49:39.323Z,519.00
2023-05-05T05:50:09.682Z,520.00
2023-05-05T05:50:39.452Z,519.00
2023-05-05T05:51:39.527Z,519.00
2023-05-05T05:52:09.630Z,520.00
2023-05-05T05:52:39.741Z,519.00
2023-05-05T05:53:09.855Z,519.00
2023-05-05T05:53:39.965Z,518.00
2023-05-05T05:54:10.086Z,520.00
2023-05-05T05:54:40.202Z,521.00
2023-05-05T05:55:10.319Z,522.00
2023-05-05T05:55:40.453Z,521.00
2023-05-05T05:56:10.434Z,522.00
2023-05-05T05:56:40.551Z,522.00
2023-05-05T05:57:10.677Z,524.00
2023-05-05T05:57:40.778Z,527.00
2023-05-05T05:58:10.891Z,528.00
2023-05-05T05:58:41.008Z,526.00
2023-05-05T05:59:11.138Z,526.00
2023-05-05T05:59:41.236Z,528.00
2023-05-05T06:00:11.457Z,528.00
2023-05-05T06:00:41.456Z,524.00
2023-05-05T06:01:11.464Z,526.00
2023-05-05T06:01:41.449Z,527.00
2023-05-05T06:02:11.590Z,525.00
2023-05-05T06:02:41.656Z,525.00
2023-05-05T06:03:11.689Z,526.00
2023-05-05T06:03:41.869Z,527.00
2023-05-05T06:04:11.868Z,530.00
2023-05-05T06:04:41.959Z,532.00
2023-05-05T06:05:11.932Z,531.00
2023-05-05T06:05:42.011Z,531.00
2023-05-05T06:06:12.086Z,529.00
2023-05-05T06:06:42.162Z,529.00
2023-05-05T06:07:12.231Z,528.00
2023-05-05T06:07:42.346Z,530.00
2023-05-05T06:08:12.402Z,531.00
2023-05-05T06:08:42.474Z,530.00
2023-05-05T06:09:12.547Z,531.00
2023-05-05T06:09:42.650Z,534.00
2023-05-05T06:10:26.653Z,533.00
2023-05-05T06:10:42.835Z,534.00
2023-05-05T06:11:12.914Z,536.00
2023-05-05T06:11:43.013Z,535.00
2023-05-05T06:12:13.087Z,535.00
2023-05-05T06:12:43.241Z,540.00
2023-05-05T06:13:13.275Z,548.00
2023-05-05T06:13:43.237Z,551.00
2023-05-05T06:14:13.307Z,552.00
2023-05-05T06:14:43.417Z,554.00
2023-05-05T06:15:13.488Z,555.00
2023-05-05T06:15:43.653Z,555.00
2023-05-05T06:16:13.762Z,557.00
2023-05-05T06:16:43.759Z,560.00
2023-05-05T06:17:13.873Z,559.00
2023-05-05T06:17:44.009Z,559.00
2023-05-05T06:18:14.150Z,559.00